ESOE/ORB METAR and TAF weather

Enter ICAO airport designator
Station Type Date Time Source
ESOE METAR 2020/10/20 17:20 UTC NOAA

ESOE 201720Z 16005KT 9000 -RA VV005 07/06 Q1010 REDZ


Station Type Date Time Source
ESOE Decoded METAR 2020/10/20 17:20 UTC NOAA

Orebro Private , Sweden (ESOE) 59-14N 015-03E
Oct 20, 2020 - 01:20 PM EDT / 2020.10.20 1720 UTC
Wind: from the SSE (160 degrees) at 6 MPH (5 KT):0
Visibility: 5 mile(s):0
Sky conditions: obscured
Weather: light rain
Temperature: 44 F (7 C)
Dew Point: 42 F (6 C)
Relative Humidity: 93%
Pressure (altimeter): 29.83 in. Hg (1010 hPa)
ob: ESOE 201720Z 16005KT 9000 -RA VV005 07/06 Q1010 REDZ
cycle: 17

Station Type Date Time Source
ESOE TAF 2016/03/16 04:36 UTC NOAA

TAF TAF ESOE 160330Z 1604/1624 23005KT 9000 BR NSC PROB40 1604/1607 1200 BR

Example: see airport list